Time;durP1;ratioP1;P1;durP2;ratioP2;P2;SDS_P1;SDS_P2;PMS_P1;PMS_P2;Temp;Humidity;BMP_temperature;BMP_pressure;BME280_temperature;BME280_humidity;BME280_pressure;Samples;Min_cycle;Max_cycle;Signal;HPM_P1;HPM_P2
2021/12/25 00:00:37;;;;;;;8.68;5.15;;;7.10;99.90;;;5.23;100.00;99472.03;4990762;28;20100;-79
2021/12/25 00:03:05;;;;;;;8.52;5.63;;;7.00;99.90;;;5.20;100.00;99472.41;4989806;28;20037;-79
2021/12/25 00:05:32;;;;;;;8.43;5.50;;;7.00;99.90;;;5.22;100.00;99475.78;5008593;28;20042;-79
2021/12/25 00:08:01;;;;;;;11.50;5.95;;;7.00;99.90;;;5.18;100.00;99479.81;5006759;28;20041;-79
2021/12/25 00:10:30;;;;;;;10.82;6.20;;;7.00;99.90;;;5.14;100.00;99467.69;5007536;28;20069;-79
2021/12/25 00:12:58;;;;;;;10.75;6.70;;;7.00;99.90;;;5.13;100.00;99476.81;5008611;28;20308;-79
2021/12/25 00:15:25;;;;;;;16.05;7.00;;;7.00;99.90;;;5.08;100.00;99474.63;5020517;23;20069;-80
2021/12/25 00:17:52;;;;;;;9.93;6.72;;;7.00;99.90;;;5.05;100.00;99465.03;5008041;28;20030;-80
2021/12/25 00:20:20;;;;;;;9.82;6.70;;;6.90;99.90;;;5.09;100.00;99469.06;5007389;28;20088;-79
2021/12/25 00:22:47;;;;;;;9.98;6.63;;;6.90;99.90;;;5.16;100.00;99465.66;4990345;28;20521;-79
2021/12/25 00:25:16;;;;;;;10.32;7.28;;;6.90;99.90;;;5.15;100.00;99469.38;5007555;28;20494;-80
2021/12/25 00:27:52;;;;;;;11.52;7.93;;;6.90;99.90;;;5.10;100.00;99472.59;5008424;28;20528;-79
2021/12/25 00:30:31;;;;;;;12.43;7.97;;;6.90;99.90;;;5.16;100.00;99476.44;5008359;28;20042;-80
2021/12/25 00:33:03;;;;;;;12.40;8.10;;;6.80;99.90;;;5.14;100.00;99489.28;5014305;28;20145;-80
2021/12/25 00:35:34;;;;;;;12.48;7.88;;;6.80;99.90;;;5.07;100.00;99484.59;4989402;28;20528;-80
2021/12/25 00:38:01;;;;;;;11.38;8.02;;;6.80;99.90;;;5.09;100.00;99485.25;5007353;28;20092;-80
2021/12/25 00:40:30;;;;;;;12.60;9.18;;;6.80;99.90;;;5.07;100.00;99484.59;5008120;28;20160;-80
2021/12/25 00:42:57;;;;;;;13.98;9.07;;;6.80;99.90;;;5.08;100.00;99480.03;5008035;28;20046;-80
2021/12/25 00:45:27;;;;;;;15.45;9.93;;;6.80;99.90;;;4.93;100.00;99489.84;4996532;28;20042;-80
2021/12/25 00:47:54;;;;;;;16.13;11.05;;;6.90;99.90;;;4.90;100.00;99486.50;5007592;28;20575;-80
2021/12/25 00:50:21;;;;;;;15.32;10.40;;;6.80;99.90;;;4.86;100.00;99489.72;5006401;28;20521;-80
2021/12/25 00:52:48;;;;;;;18.05;11.68;;;6.80;99.90;;;4.73;100.00;99492.94;5007724;28;20081;-79
2021/12/25 00:55:16;;;;;;;16.48;11.27;;;6.80;99.90;;;4.69;100.00;99492.44;5007746;28;20041;-80
2021/12/25 00:57:44;;;;;;;16.00;11.45;;;6.80;99.90;;;4.71;100.00;99492.28;5008403;28;20046;-80
2021/12/25 01:00:14;;;;;;;16.95;11.48;;;6.70;99.90;;;4.80;100.00;99495.81;5007927;28;20135;-80
2021/12/25 01:02:46;;;;;;;16.65;11.95;;;6.70;99.90;;;4.81;100.00;99492.09;4989631;28;20549;-79
2021/12/25 01:05:17;;;;;;;17.98;12.43;;;6.70;99.90;;;4.75;100.00;99501.69;4990171;28;20050;-80
2021/12/25 01:07:45;;;;;;;16.55;11.95;;;6.70;99.90;;;4.74;100.00;99499.16;4989699;28;20459;-80
2021/12/25 01:10:19;;;;;;;17.20;10.60;;;6.70;99.90;;;4.67;100.00;99499.88;4990166;28;20044;-80
2021/12/25 01:13:00;;;;;;;15.38;10.73;;;6.60;99.90;;;4.60;100.00;99493.47;4989891;28;20054;-80
2021/12/25 01:15:37;;;;;;;14.02;10.05;;;6.60;99.90;;;4.60;100.00;99490.78;5005972;28;20141;-80
2021/12/25 01:21:26;;;;;;;16.35;12.00;;;6.50;99.90;;;4.54;100.00;99488.78;4989308;28;20139;-80
2021/12/25 01:24:14;;;;;;;16.60;11.73;;;6.50;99.90;;;4.54;100.00;99488.78;4989681;28;20050;-79
2021/12/25 01:27:25;;;;;;;16.88;12.02;;;6.50;99.90;;;4.52;100.00;99493.50;5014455;28;20133;-79
2021/12/25 01:30:04;;;;;;;17.58;12.00;;;6.40;99.90;;;4.45;100.00;99495.19;4990014;28;20053;-80
2021/12/25 01:36:22;;;;;;;14.38;10.52;;;6.40;99.90;;;4.36;100.00;99497.06;5007722;28;20104;-80
2021/12/25 01:39:20;;;;;;;17.60;10.35;;;6.40;99.90;;;4.18;100.00;99489.16;5007211;28;20049;-80
2021/12/25 01:48:35;;;;;;;;;;;6.20;99.90;;;4.23;100.00;99488.66;5006134;28;20404;-80
2021/12/25 01:51:02;;;;;;;15.98;11.20;;;6.10;99.90;;;4.09;100.00;99491.00;5012383;28;19925;-80
2021/12/25 01:53:30;;;;;;;15.30;10.73;;;6.20;99.90;;;4.07;100.00;99500.25;4989941;28;20050;-80
2021/12/25 01:55:59;;;;;;;17.45;11.77;;;6.10;99.90;;;4.06;100.00;99506.66;4993006;28;20131;-80
2021/12/25 01:58:26;;;;;;;16.15;11.13;;;6.20;99.90;;;4.07;100.00;99509.19;4993641;28;20451;-80
2021/12/25 02:01:00;;;;;;;15.70;11.45;;;6.10;99.90;;;4.00;100.00;99512.69;5009704;28;20053;-80
2021/12/25 02:03:31;;;;;;;15.00;11.43;;;6.10;99.90;;;4.02;100.00;99510.69;4992479;28;20096;-80
2021/12/25 02:05:59;;;;;;;15.70;11.75;;;6.00;99.90;;;3.99;100.00;99505.63;4992740;28;20053;-80
2021/12/25 02:08:34;;;;;;;16.00;11.60;;;6.00;99.90;;;3.86;100.00;99509.66;5010199;28;20046;-80
2021/12/25 02:11:04;;;;;;;15.23;11.75;;;6.00;99.90;;;3.80;100.00;99518.38;4992009;28;20585;-80
2021/12/25 02:13:31;;;;;;;15.43;11.75;;;6.00;99.90;;;3.80;100.00;99507.63;5001379;28;20096;-80
2021/12/25 02:16:05;;;;;;;15.25;11.50;;;6.00;99.90;;;3.80;100.00;99517.56;4993209;28;20133;-80
2021/12/25 02:18:54;;;;;;;14.98;11.30;;;5.90;99.90;;;3.80;100.00;99513.00;5010005;28;20524;-80
2021/12/25 02:21:36;;;;;;;15.88;11.90;;;5.90;99.90;;;3.73;100.00;99503.91;5010394;28;20805;-80
2021/12/25 02:24:05;;;;;;;15.80;11.65;;;5.90;99.90;;;3.78;100.00;99498.03;4992931;28;20050;-80
2021/12/25 02:26:34;;;;;;;17.85;12.43;;;5.90;99.90;;;3.75;100.00;99493.84;5017018;28;20041;-80
2021/12/25 02:29:02;;;;;;;16.75;12.23;;;5.80;99.90;;;3.75;100.00;99493.84;4993226;28;20077;-80
2021/12/25 02:31:29;;;;;;;15.18;11.50;;;5.80;99.90;;;3.70;100.00;99491.63;4992560;28;20088;-80
2021/12/25 02:33:57;;;;;;;14.57;11.43;;;5.80;99.90;;;3.61;100.00;99491.78;5010927;28;20404;-80
2021/12/25 02:36:24;;;;;;;14.75;10.98;;;5.80;99.90;;;3.60;100.00;99498.16;5008589;28;20125;-80
2021/12/25 02:38:53;;;;;;;15.13;11.20;;;5.70;99.90;;;3.53;100.00;99485.38;5010793;28;20128;-80
2021/12/25 02:41:21;;;;;;;15.52;11.55;;;5.70;99.90;;;3.55;100.00;99495.16;5016484;28;20050;-80
2021/12/25 02:43:49;;;;;;;14.18;10.70;;;5.80;99.90;;;3.51;100.00;99494.63;4992509;28;20061;-80
2021/12/25 02:46:26;;;;;;;14.38;11.00;;;5.70;99.90;;;3.55;100.00;99500.53;4992948;28;20437;-80
2021/12/25 02:48:56;;;;;;;14.85;11.65;;;5.60;99.90;;;3.53;100.00;99493.44;4991434;28;20060;-80
2021/12/25 02:51:24;;;;;;;16.13;12.27;;;5.60;99.90;;;3.58;100.00;99500.19;4997709;28;20050;-80
2021/12/25 02:53:53;;;;;;;16.95;11.88;;;5.60;99.90;;;3.55;100.00;99503.22;4992564;28;20417;-80
2021/12/25 02:56:20;;;;;;;15.50;11.68;;;5.60;99.90;;;3.58;100.00;99508.25;4992167;28;20050;-80
2021/12/25 02:58:48;;;;;;;15.60;11.88;;;5.50;99.90;;;3.59;100.00;99504.56;5000966;28;20161;-80
2021/12/25 03:01:20;;;;;;;16.08;11.73;;;5.50;99.90;;;3.50;100.00;99501.88;5008010;28;20503;-80
2021/12/25 03:03:49;;;;;;;16.30;12.43;;;5.50;99.90;;;3.46;100.00;99495.09;4992353;28;20050;-80
2021/12/25 03:06:16;;;;;;;17.95;13.02;;;5.50;99.90;;;3.45;100.00;99497.97;5006928;28;20041;-80
2021/12/25 03:08:44;;;;;;;17.02;12.60;;;5.50;99.90;;;3.44;100.00;99493.59;4991575;28;20038;-80
2021/12/25 03:11:14;;;;;;;16.27;11.73;;;5.40;99.90;;;3.47;100.00;99507.56;4992287;28;20079;-80
2021/12/25 03:13:45;;;;;;;17.42;12.77;;;5.40;99.90;;;3.48;100.00;99495.81;4992203;28;20053;-80
2021/12/25 03:16:16;;;;;;;17.80;13.35;;;5.40;99.90;;;3.49;100.00;99500.16;4992250;28;20054;-80
2021/12/25 03:18:48;;;;;;;17.20;13.07;;;5.40;99.90;;;3.51;100.00;99494.63;5007150;28;20152;-80
2021/12/25 03:21:17;;;;;;;16.55;12.70;;;5.40;99.90;;;3.48;100.00;99497.63;5009165;28;20052;-80
2021/12/25 03:23:48;;;;;;;16.70;12.57;;;5.40;99.90;;;3.41;100.00;99496.59;4992029;28;20148;-80
2021/12/25 03:26:17;;;;;;;17.35;12.93;;;5.40;99.90;;;3.33;100.00;99498.28;5015397;28;20582;-80
2021/12/25 03:28:46;;;;;;;17.10;13.23;;;5.30;99.90;;;3.34;100.00;99499.13;5000147;28;20073;-80
2021/12/25 03:31:19;;;;;;;15.98;11.75;;;5.30;99.90;;;3.25;100.00;99487.47;4991840;28;20049;-80
2021/12/25 03:33:50;;;;;;;16.95;12.70;;;5.30;99.90;;;3.29;100.00;99490.69;4991770;28;20057;-80
2021/12/25 03:36:18;;;;;;;17.65;12.98;;;5.30;99.90;;;3.30;100.00;99490.53;5015061;28;20542;-80
2021/12/25 03:38:46;;;;;;;17.00;12.40;;;5.30;99.90;;;3.23;100.00;99491.34;4991166;28;20049;-80
2021/12/25 03:41:18;;;;;;;18.55;13.35;;;5.30;99.90;;;3.28;100.00;99503.28;4990463;28;20133;-80
2021/12/25 03:43:45;;;;;;;18.08;13.20;;;5.20;99.90;;;3.23;100.00;99505.63;4991078;28;20050;-80
2021/12/25 03:46:15;;;;;;;18.25;13.25;;;5.20;99.90;;;3.17;100.00;99503.59;4991469;28;20053;-80
2021/12/25 03:49:00;;;;;;;21.35;13.45;;;5.20;99.90;;;3.12;100.00;99504.09;5009012;28;20030;-80
2021/12/25 03:59:52;;;;;;;17.50;12.68;;;5.20;99.90;;;3.16;100.00;99509.97;4991615;28;20050;-80
2021/12/25 04:02:25;;;;;;;17.20;12.38;;;5.10;99.90;;;3.16;100.00;99496.53;4990982;28;20080;-80
2021/12/25 04:04:53;;;;;;;16.67;11.82;;;5.10;99.90;;;3.12;100.00;99490.66;4990959;28;20050;-80
2021/12/25 04:07:44;;;;;;;17.80;13.00;;;5.20;99.90;;;3.12;100.00;99503.22;5006645;28;20053;-80
2021/12/25 04:10:12;;;;;;;;;;;5.10;99.90;;;3.16;100.00;99514.50;4991221;28;20053;-80
2021/12/25 04:12:40;;;;;;;19.83;13.80;;;5.30;99.90;;;3.11;100.00;99517.69;5015011;28;19925;-80
2021/12/25 04:15:08;;;;;;;19.27;12.77;;;5.10;99.90;;;3.11;100.00;99512.31;4990536;28;20498;-80
2021/12/25 04:17:35;;;;;;;18.80;13.27;;;5.10;99.90;;;3.07;100.00;99511.78;5008494;28;20034;-80
2021/12/25 04:20:04;;;;;;;20.63;14.05;;;5.20;99.90;;;3.10;100.00;99516.84;4990778;28;20045;-80
2021/12/25 04:22:40;;;;;;;19.17;13.93;;;5.10;99.90;;;3.15;100.00;99513.66;4990196;28;20464;-80
2021/12/25 04:25:08;;;;;;;18.92;12.77;;;5.10;99.90;;;3.11;100.00;99523.88;4990866;28;20058;-80
2021/12/25 04:27:37;;;;;;;18.10;12.70;;;5.10;99.90;;;3.04;100.00;99530.91;4990940;28;20049;-80
2021/12/25 04:30:21;;;;;;;18.70;13.10;;;5.10;99.90;;;2.99;100.00;99527.88;4990686;28;20053;-80
2021/12/25 04:33:27;;;;;;;18.25;12.93;;;5.10;99.90;;;2.92;100.00;99529.50;4990146;28;20054;-80
2021/12/25 04:50:02;;;;;;;18.02;12.27;;;5.00;99.90;;;2.76;100.00;99550.91;4989385;28;20046;-80
2021/12/25 05:04:11;;;;;;;16.10;11.60;;;4.90;99.90;;;2.72;100.00;99570.03;4918698;29;20081;-80
2021/12/25 05:06:44;;;;;;;15.43;10.95;;;4.90;99.90;;;2.65;100.00;99570.81;4979352;28;20054;-80
2021/12/25 05:09:12;;;;;;;16.20;11.27;;;4.80;99.90;;;2.61;100.00;99570.28;4989013;28;20076;-80
2021/12/25 05:11:39;;;;;;;15.00;10.70;;;4.80;99.90;;;2.62;100.00;99576.50;4989751;28;20053;-80
2021/12/25 05:14:07;;;;;;;13.75;10.40;;;4.80;99.90;;;2.53;100.00;99575.59;5014568;28;20084;-80
2021/12/25 05:16:40;;;;;;;15.77;10.98;;;4.70;99.90;;;2.54;100.00;99583.50;5006705;28;20054;-80
2021/12/25 05:19:09;;;;;;;17.52;11.65;;;4.70;99.90;;;2.52;100.00;99584.66;4990319;28;20056;-80
2021/12/25 05:21:37;;;;;;;18.33;11.35;;;4.60;99.90;;;2.48;100.00;99575.22;4989892;28;20057;-80
2021/12/25 05:24:06;;;;;;;16.63;11.10;;;4.60;99.90;;;2.47;100.00;99574.38;4989547;28;20061;-80
2021/12/25 05:26:39;;;;;;;17.13;11.15;;;4.70;99.90;;;2.50;100.00;99583.97;4989195;28;20061;-80
2021/12/25 05:29:07;;;;;;;13.48;9.90;;;4.70;99.90;;;2.51;100.00;99577.59;5005834;28;20046;-80
2021/12/25 05:31:37;;;;;;;16.70;10.98;;;4.70;99.90;;;2.49;100.00;99577.72;4989480;28;20141;-80
2021/12/25 05:34:22;;;;;;;14.07;10.50;;;4.70;99.90;;;2.42;100.00;99573.13;4989595;28;20195;-80
2021/12/25 05:37:03;;;;;;;14.05;10.57;;;4.60;99.90;;;2.42;100.00;99575.81;4989533;28;20589;-80
2021/12/25 05:39:51;;;;;;;14.15;10.38;;;4.60;99.90;;;2.34;100.00;99580.16;5007395;28;20061;-80
2021/12/25 05:42:23;;;;;;;14.25;10.70;;;4.60;99.90;;;2.29;100.00;99582.44;4989363;28;20057;-80
2021/12/25 05:44:51;;;;;;;14.38;10.60;;;4.60;99.90;;;2.23;100.00;99582.22;4989321;28;20050;-80
2021/12/25 05:47:25;;;;;;;14.55;10.73;;;4.50;99.90;;;2.25;100.00;99580.25;5007268;28;20049;-80
2021/12/25 05:50:14;;;;;;;13.05;9.63;;;4.60;99.90;;;2.14;100.00;99589.34;4999821;28;20426;-80
2021/12/25 05:52:56;;;;;;;13.77;9.52;;;4.50;99.90;;;2.22;100.00;99581.38;4989178;28;20078;-80
2021/12/25 05:55:30;;;;;;;13.35;10.02;;;4.40;99.90;;;2.13;100.00;99590.34;5007220;28;20072;-81
2021/12/25 05:58:36;;;;;;;11.95;9.18;;;4.40;99.90;;;2.17;100.00;99610.53;4995501;28;20050;-81
2021/12/25 06:01:26;;;;;;;14.10;10.00;;;4.30;99.90;;;2.01;100.00;99595.09;4988713;28;20100;-80
2021/12/25 06:03:53;;;;;;;16.48;10.10;;;4.30;99.90;;;2.01;100.00;99594.25;5007401;28;20050;-81
2021/12/25 06:06:24;;;;;;;15.15;10.95;;;4.20;99.90;;;1.98;100.00;99594.56;5012825;28;20082;-80
2021/12/25 06:08:52;;;;;;;12.43;9.23;;;4.30;99.90;;;2.05;100.00;99595.63;5005602;28;20042;-80
2021/12/25 06:11:20;;;;;;;14.82;10.43;;;4.20;99.90;;;1.89;100.00;99601.69;5006621;28;20078;-81
2021/12/25 06:16:33;;;;;;;14.23;10.80;;;4.20;99.90;;;2.01;100.00;99602.31;4991342;28;20093;-81
2021/12/25 06:19:11;;;;;;;13.77;10.07;;;4.10;99.90;;;1.98;100.00;99600.78;4985879;28;20061;-78
2021/12/25 06:21:56;;;;;;;13.77;9.95;;;4.10;99.90;;;2.05;100.00;99606.38;4985484;28;20051;-81
2021/12/25 06:24:39;;;;;;;13.23;9.80;;;4.20;99.90;;;2.02;100.00;99614.72;4964335;28;20057;-78
2021/12/25 06:27:24;;;;;;;14.48;9.48;;;4.10;99.90;;;2.00;100.00;99608.66;4967351;28;20039;-78
2021/12/25 06:30:27;;;;;;;13.38;9.35;;;4.10;99.90;;;1.84;100.00;99610.19;4899281;29;20056;-78
2021/12/25 06:33:00;;;;;;;12.85;9.65;;;4.10;99.90;;;1.87;100.00;99615.25;4956561;28;20054;-78
2021/12/25 06:35:46;;;;;;;14.85;9.60;;;4.10;99.90;;;1.87;100.00;99619.78;4968124;28;20550;-78
2021/12/25 06:38:39;;;;;;;14.02;9.70;;;4.00;99.90;;;1.85;100.00;99613.72;4944295;28;20125;-79
2021/12/25 06:41:14;;;;;;;14.38;9.98;;;4.00;99.90;;;1.82;100.00;99612.16;4953014;28;20059;-78
2021/12/25 06:43:42;;;;;;;14.15;10.32;;;4.00;99.90;;;1.90;100.00;99614.94;4978959;28;20061;-79
2021/12/25 06:46:11;;;;;;;13.23;9.77;;;4.00;99.90;;;1.88;100.00;99624.13;4969106;28;20561;-78
2021/12/25 06:48:41;;;;;;;14.35;10.13;;;4.00;99.90;;;1.83;100.00;99621.06;4977940;28;20538;-79
2021/12/25 06:51:11;;;;;;;12.27;9.32;;;4.00;99.90;;;1.82;100.00;99625.59;4970495;28;20057;-79
2021/12/25 06:53:58;;;;;;;12.85;10.02;;;3.90;99.90;;;1.81;100.00;99633.78;4953676;28;20062;-79
2021/12/25 06:56:55;;;;;;;13.02;9.77;;;4.00;99.90;;;1.83;100.00;99629.97;4966316;28;20055;-78
2021/12/25 06:59:28;;;;;;;12.70;9.70;;;3.90;99.90;;;1.86;100.00;99639.53;4969192;28;20059;-79
2021/12/25 07:01:56;;;;;;;16.58;10.77;;;3.90;99.90;;;1.78;100.00;99637.59;4952846;28;20152;-78
2021/12/25 07:04:46;;;;;;;15.35;10.13;;;3.90;99.90;;;1.78;100.00;99648.34;4943586;28;20054;-78
2021/12/25 07:07:34;;;;;;;18.15;10.48;;;4.00;99.90;;;1.75;100.00;99648.63;4965584;28;20070;-78
2021/12/25 07:10:26;;;;;;;13.65;10.38;;;3.90;99.90;;;1.70;100.00;99653.63;4977548;28;20050;-78
2021/12/25 07:13:03;;;;;;;16.67;10.60;;;3.90;99.90;;;1.66;100.00;99657.59;4969271;28;20055;-78
2021/12/25 07:15:56;;;;;;;15.65;10.45;;;3.80;99.90;;;1.63;100.00;99656.03;4953114;28;20051;-78
2021/12/25 07:18:49;;;;;;;13.98;10.27;;;3.80;99.90;;;1.61;100.00;99665.22;4967792;28;20051;-78
2021/12/25 07:21:36;;;;;;;14.73;10.10;;;3.80;99.90;;;1.52;100.00;99661.59;4969657;28;20141;-78
2021/12/25 07:24:38;;;;;;;15.15;10.15;;;3.80;99.90;;;1.55;100.00;99667.50;4971099;28;20889;-78
2021/12/25 07:27:33;;;;;;;15.70;10.90;;;3.80;99.90;;;1.42;100.00;99658.94;4967807;28;20412;-78
2021/12/25 07:30:02;;;;;;;15.93;10.82;;;3.70;99.90;;;1.38;100.00;99665.59;4970727;28;20039;-78
2021/12/25 07:32:30;;;;;;;14.27;10.32;;;3.80;99.90;;;1.38;100.00;99679.00;4970483;28;20129;-78
2021/12/25 07:34:57;;;;;;;14.43;10.63;;;3.70;99.90;;;1.38;100.00;99678.16;4970720;28;20054;-78
2021/12/25 07:37:25;;;;;;;16.27;10.70;;;3.60;99.90;;;1.31;100.00;99685.94;4970192;28;20051;-78
2021/12/25 07:39:52;;;;;;;15.68;10.90;;;3.60;99.90;;;1.36;100.00;99686.34;4969589;28;20045;-78
2021/12/25 07:42:19;;;;;;;15.32;10.93;;;3.60;99.90;;;1.35;100.00;99685.50;4970281;28;20074;-78
2021/12/25 07:45:18;;;;;;;14.52;10.55;;;3.60;99.90;;;1.40;100.00;99689.59;4958601;28;20059;-78
2021/12/25 07:47:51;;;;;;;15.50;10.50;;;3.60;99.90;;;1.41;100.00;99683.22;4970379;28;20130;-78
2021/12/25 07:50:18;;;;;;;15.88;10.85;;;3.60;99.90;;;1.36;100.00;99694.38;4969994;28;19925;-78
2021/12/25 07:52:45;;;;;;;15.48;10.80;;;3.60;99.90;;;1.44;100.00;99701.69;4969235;28;20050;-78
2021/12/25 07:55:12;;;;;;;17.67;11.15;;;3.50;99.90;;;1.41;100.00;99700.16;4970463;28;20515;-78
2021/12/25 07:57:40;;;;;;;15.98;11.40;;;3.60;99.90;;;1.46;100.00;99703.22;4953050;28;20137;-78
2021/12/25 08:00:12;;;;;;;16.75;11.27;;;3.50;99.90;;;1.35;100.00;99708.75;4970311;28;20042;-78
2021/12/25 08:02:42;;;;;;;16.00;11.43;;;3.50;99.90;;;1.38;100.00;99708.47;4970361;28;20059;-78
2021/12/25 08:05:11;;;;;;;;;;;3.50;99.90;;;1.41;100.00;99713.56;4970724;28;20097;-78
2021/12/25 08:07:38;;;;;;;19.08;11.93;;;3.50;99.90;;;1.33;100.00;99713.44;4969793;28;20422;-79
2021/12/25 08:10:17;;;;;;;17.45;11.65;;;3.60;99.90;;;1.26;100.00;99713.19;4970446;28;20242;-78
2021/12/25 08:12:47;;;;;;;18.23;12.60;;;3.50;99.90;;;1.18;100.00;99721.06;4969429;28;20530;-79
2021/12/25 08:15:17;;;;;;;17.27;12.70;;;3.50;99.90;;;1.20;100.00;99720.94;4969751;28;20070;-78
2021/12/25 08:17:47;;;;;;;20.85;12.98;;;3.50;99.90;;;1.23;100.00;99726.03;4969709;28;20369;-79
2021/12/25 08:20:40;;;;;;;18.17;12.77;;;3.50;99.90;;;1.25;100.00;99732.06;4969865;28;20519;-79
2021/12/25 08:23:26;;;;;;;17.95;12.32;;;3.50;99.90;;;1.17;100.00;99735.47;4970060;28;20054;-80
2021/12/25 08:26:07;;;;;;;18.55;11.88;;;3.50;99.90;;;1.10;100.00;99737.03;4969704;28;20042;-80
2021/12/25 08:28:53;;;;;;;21.92;12.38;;;3.40;99.90;;;1.08;100.00;99739.00;4969831;28;20057;-80
2021/12/25 08:31:41;;;;;;;18.55;12.07;;;3.40;99.90;;;1.16;100.00;99737.31;4969247;28;20066;-79
2021/12/25 08:34:28;;;;;;;17.05;12.10;;;3.40;99.90;;;1.17;100.00;99736.31;4971314;28;20129;-79
2021/12/25 08:37:06;;;;;;;17.88;11.70;;;3.40;99.90;;;1.22;100.00;99732.34;4976180;28;20065;-80
2021/12/25 08:39:33;;;;;;;18.17;12.05;;;3.40;99.90;;;1.25;100.00;99734.75;4969774;28;20053;-79
2021/12/25 08:42:03;;;;;;;15.70;10.35;;;3.40;99.90;;;1.29;100.00;99738.84;4969477;28;20582;-81
2021/12/25 08:44:37;;;;;;;13.60;10.35;;;3.40;99.90;;;1.20;100.00;99734.34;4969179;28;20061;-81
2021/12/25 08:47:08;;;;;;;16.67;11.05;;;3.40;99.90;;;1.29;100.00;99746.88;4969680;28;20050;-81
2021/12/25 08:49:40;;;;;;;16.60;10.48;;;3.40;99.90;;;1.21;100.00;99744.09;4968998;28;20078;-81
2021/12/25 08:52:11;;;;;;;16.92;10.77;;;3.50;99.90;;;1.20;100.00;99745.91;4967846;28;20043;-82
2021/12/25 08:54:40;;;;;;;13.50;9.85;;;3.50;99.90;;;1.23;100.00;99745.63;4969175;28;20049;-83
2021/12/25 08:57:08;;;;;;;15.27;9.70;;;3.50;99.90;;;1.30;100.00;99740.53;4969187;28;20047;-81
2021/12/25 08:59:37;;;;;;;15.35;9.75;;;3.50;99.90;;;1.38;100.00;99746.00;4968557;28;20518;-81
2021/12/25 09:02:09;;;;;;;13.88;9.95;;;3.40;99.90;;;1.34;100.00;99747.31;4968888;28;20090;-81
2021/12/25 09:04:40;;;;;;;12.05;8.70;;;3.50;99.90;;;1.41;100.00;99761.81;4968287;28;20127;-81
2021/12/25 09:07:08;;;;;;;14.55;9.15;;;3.50;99.90;;;1.40;100.00;99756.59;4968522;28;20130;-82
2021/12/25 09:09:36;;;;;;;11.27;8.07;;;3.50;99.90;;;1.44;100.00;99761.50;4969281;28;20047;-81
2021/12/25 09:12:05;;;;;;;11.90;7.72;;;3.50;99.90;;;1.27;100.00;99762.25;4968982;28;20134;-80
2021/12/25 09:14:32;;;;;;;12.75;8.40;;;3.50;99.90;;;1.31;100.00;99769.03;4968701;28;20121;-81
2021/12/25 09:17:00;;;;;;;14.27;8.07;;;3.50;99.90;;;1.27;100.00;99779.19;4969131;28;20207;-84
2021/12/25 09:19:27;;;;;;;11.60;7.07;;;3.40;99.90;;;1.15;100.00;99772.28;4968520;28;20125;-83
2021/12/25 09:21:57;;;;;;;10.90;7.03;;;3.40;99.90;;;1.20;100.00;99767.38;4968183;28;20070;-85
2021/12/25 09:24:25;;;;;;;10.98;6.85;;;3.40;99.90;;;1.20;100.00;99771.84;4968835;28;20066;-83
2021/12/25 09:26:52;;;;;;;10.25;6.90;;;3.40;99.90;;;1.19;100.00;99772.84;4974247;28;20043;-85
2021/12/25 09:29:20;;;;;;;9.50;6.93;;;3.40;99.90;;;1.25;100.00;99780.31;4968338;28;20106;-83
2021/12/25 09:31:47;;;;;;;12.07;6.82;;;3.50;99.90;;;1.23;100.00;99790.34;4968452;28;20043;-83
2021/12/25 09:34:15;;;;;;;7.93;5.63;;;3.40;99.90;;;1.22;100.00;99794.00;4968480;28;20465;-82
2021/12/25 09:36:42;;;;;;;8.65;5.72;;;3.40;99.90;;;1.08;100.00;99790.75;4968168;28;20071;-83
2021/12/25 09:39:11;;;;;;;10.15;6.45;;;3.40;99.90;;;1.07;100.00;99805.16;4968451;28;20162;-83
2021/12/25 09:41:38;;;;;;;10.63;6.18;;;3.30;99.90;;;1.01;100.00;99789.66;4968472;28;20097;-80
2021/12/25 09:44:07;;;;;;;9.10;6.10;;;3.30;99.90;;;1.01;100.00;99800.38;4967922;28;20118;-84
2021/12/25 09:46:35;;;;;;;10.85;6.32;;;3.30;99.90;;;1.06;100.00;99800.78;4968362;28;20074;-82
2021/12/25 09:49:03;;;;;;;8.50;6.05;;;3.30;99.90;;;1.06;100.00;99802.63;4968278;28;20042;-86
2021/12/25 09:51:30;;;;;;;9.75;6.15;;;3.30;99.90;;;1.11;100.00;99817.28;4967362;28;20836;-85
2021/12/25 09:54:04;;;;;;;8.13;5.72;;;3.30;99.90;;;1.08;100.00;99806.84;4968418;28;20455;-86
2021/12/25 09:56:34;;;;;;;8.50;5.40;;;3.30;99.90;;;0.98;100.00;99830.94;4968781;28;20047;-86
2021/12/25 09:59:03;;;;;;;7.68;5.20;;;3.30;99.90;;;0.98;100.00;99817.56;4968204;28;20075;-86
2021/12/25 10:01:43;;;;;;;8.20;5.53;;;3.30;99.90;;;1.01;100.00;99832.53;4967602;28;20055;-86
2021/12/25 10:04:29;;;;;;;10.63;5.38;;;3.20;99.90;;;0.95;100.00;99825.03;4968566;28;20051;-84
2021/12/25 10:06:57;;;;;;;7.10;4.57;;;3.20;99.90;;;0.95;100.00;99819.66;4967789;28;20431;-83
2021/12/25 10:09:27;;;;;;;7.55;5.00;;;3.20;99.90;;;1.00;100.00;99809.38;4968160;28;20125;-82
2021/12/25 10:12:07;;;;;;;8.75;4.80;;;3.20;99.90;;;1.05;100.00;99815.19;4968026;28;20117;-83
2021/12/25 10:14:34;;;;;;;8.02;4.57;;;3.20;99.90;;;1.08;100.00;99816.72;4968637;28;20051;-83
2021/12/25 10:17:15;;;;;;;6.13;4.22;;;3.20;99.90;;;1.15;100.00;99815.16;4971343;28;20458;-84
2021/12/25 10:19:43;;;;;;;6.77;4.20;;;3.30;99.90;;;1.16;100.00;99815.03;4971549;28;20043;-82
2021/12/25 10:22:12;;;;;;;5.88;3.90;;;3.30;99.90;;;1.16;100.00;99816.84;4971586;28;20072;-84
2021/12/25 10:24:49;;;;;;;6.65;4.05;;;3.20;99.90;;;1.15;100.00;99818.69;4971523;28;20062;-83
2021/12/25 10:27:21;;;;;;;6.60;4.00;;;3.20;99.90;;;1.16;100.00;99820.41;4971734;28;20077;-83
2021/12/25 10:29:58;;;;;;;6.18;3.60;;;3.30;99.90;;;1.22;100.00;99821.66;4972290;28;20463;-82
2021/12/25 10:32:26;;;;;;;6.13;4.03;;;3.20;99.90;;;1.22;100.00;99828.84;4971662;28;20092;-81
2021/12/25 10:34:55;;;;;;;7.03;4.13;;;3.20;99.90;;;1.20;100.00;99820.09;4971737;28;20074;-82
2021/12/25 10:37:23;;;;;;;6.65;4.15;;;3.20;99.70;;;1.16;100.00;99828.44;4972019;28;20070;-81
2021/12/25 10:39:51;;;;;;;7.32;3.63;;;3.20;99.90;;;1.25;100.00;99820.53;4972194;28;20529;-81
2021/12/25 10:42:23;;;;;;;8.18;4.43;;;3.20;99.70;;;1.27;100.00;99821.22;4971134;28;20046;-81
2021/12/25 10:44:55;;;;;;;5.07;3.25;;;3.30;99.90;;;1.26;100.00;99824.91;4971793;28;20141;-81
2021/12/25 10:47:25;;;;;;;5.68;3.22;;;3.30;99.90;;;1.23;100.00;99820.66;4971997;28;20066;-81
2021/12/25 10:49:56;;;;;;;6.97;3.60;;;3.20;99.50;;;1.21;99.84;99814.59;4971986;28;20170;-78
2021/12/25 10:52:30;;;;;;;6.03;3.60;;;3.30;99.60;;;1.25;100.00;99817.84;4970959;28;20158;-82
2021/12/25 10:55:01;;;;;;;5.10;3.42;;;3.30;99.30;;;1.23;99.41;99826.03;4971713;28;20054;-81
2021/12/25 10:57:35;;;;;;;6.82;3.25;;;3.30;98.90;;;1.27;98.37;99821.22;4971662;28;20610;-82
2021/12/25 11:00:07;;;;;;;4.88;3.28;;;3.30;98.80;;;1.36;99.13;99823.91;4968296;28;20043;-77
2021/12/25 11:02:38;;;;;;;5.88;3.25;;;3.30;98.90;;;1.42;98.55;99821.66;4970277;28;20050;-77
2021/12/25 11:05:22;;;;;;;6.93;3.10;;;3.30;98.60;;;1.37;97.58;99822.06;4970668;28;20054;-78
2021/12/25 11:08:02;;;;;;;5.30;3.00;;;3.40;98.80;;;1.39;97.79;99830.84;4970723;28;20661;-78
2021/12/25 11:10:30;;;;;;;7.13;3.10;;;3.40;98.60;;;1.36;97.08;99815.84;4969625;28;20039;-77
2021/12/25 11:12:59;;;;;;;6.43;3.28;;;3.40;98.40;;;1.42;98.18;99817.13;4969224;28;20042;-77
2021/12/25 11:15:30;;;;;;;4.80;2.97;;;3.40;98.80;;;1.44;97.77;99800.91;4969551;28;20078;-77
2021/12/25 11:18:06;;;;;;;;;;;3.40;98.70;;;1.41;97.15;99802.03;4970964;28;20050;-77
2021/12/25 11:20:36;;;;;;;7.18;3.28;;;3.40;98.20;;;1.48;97.53;99802.28;4970682;28;19926;-77
2021/12/25 11:23:07;;;;;;;5.15;3.03;;;3.50;98.60;;;1.43;97.65;99800.06;4970287;28;20090;-77
2021/12/25 11:25:36;;;;;;;5.90;3.40;;;3.40;98.00;;;1.38;97.20;99791.59;4969936;28;20117;-77
2021/12/25 11:28:09;;;;;;;7.40;3.45;;;3.40;98.30;;;1.35;98.26;99798.09;4969695;28;20050;-77
2021/12/25 11:30:41;;;;;;;4.80;2.80;;;3.50;98.90;;;1.35;97.36;99810.63;4969417;28;20050;-76
2021/12/25 11:33:09;;;;;;;5.60;3.10;;;3.40;98.30;;;1.34;96.61;99812.47;4969801;28;20503;-76